createdAt,value
2023-02-06T00:01:24.811Z,96037.34
2023-02-06T00:03:51.442Z,96044.25
2023-02-06T00:06:18.350Z,96041.84
2023-02-06T00:08:44.810Z,96035.75
2023-02-06T00:11:13.930Z,96045.03
2023-02-06T00:13:40.357Z,96043.06
2023-02-06T00:16:15.755Z,96038.31
2023-02-06T00:18:42.219Z,96036.13
2023-02-06T00:21:08.816Z,96030.97
2023-02-06T00:23:35.280Z,96037.50
2023-02-06T00:26:01.731Z,96034.78
2023-02-06T00:28:28.786Z,96041.47
2023-02-06T00:30:56.957Z,96052.16
2023-02-06T00:33:23.586Z,96045.25
2023-02-06T00:35:49.964Z,96055.16
2023-02-06T00:38:16.380Z,96055.34
2023-02-06T00:40:44.215Z,96055.91
2023-02-06T00:43:10.640Z,96071.72
2023-02-06T00:45:37.187Z,96061.63
2023-02-06T00:48:03.847Z,96052.13
2023-02-06T00:50:30.277Z,96057.09
2023-02-06T00:52:56.683Z,96049.97
2023-02-06T00:55:23.161Z,96057.69
2023-02-06T00:57:49.615Z,96054.84
2023-02-06T01:00:16.747Z,96050.13
2023-02-06T01:02:43.217Z,96055.25
2023-02-06T01:05:10.019Z,96049.50
2023-02-06T01:07:39.155Z,96049.69
2023-02-06T01:10:08.316Z,96056.97
2023-02-06T01:12:36.202Z,96057.19
2023-02-06T01:15:07.025Z,96043.53
2023-02-06T01:17:34.208Z,96045.91
2023-02-06T01:20:00.978Z,96054.84
2023-02-06T01:22:27.489Z,96049.31
2023-02-06T01:24:54.032Z,96050.34
2023-02-06T01:27:20.479Z,96037.50
2023-02-06T01:29:46.864Z,96033.91
2023-02-06T01:32:13.268Z,96028.19
2023-02-06T01:34:39.680Z,96031.50
2023-02-06T01:37:06.130Z,96018.44
2023-02-06T01:39:33.073Z,96018.50
2023-02-06T01:41:59.604Z,96021.44
2023-02-06T01:44:26.359Z,96024.03
2023-02-06T01:46:56.117Z,96026.22
2023-02-06T01:49:30.446Z,96026.22
2023-02-06T01:52:07.824Z,96020.47
2023-02-06T01:54:34.966Z,96020.91
2023-02-06T01:57:05.874Z,96026.84
2023-02-06T01:59:33.571Z,96027.59
2023-02-06T02:01:59.998Z,96028.56
2023-02-06T02:04:28.792Z,96041.78
2023-02-06T02:07:26.218Z,96036.47
2023-02-06T02:09:53.350Z,96029.16
2023-02-06T02:12:20.413Z,96027.53
2023-02-06T02:14:48.786Z,96027.53
2023-02-06T02:17:38.170Z,96023.78
2023-02-06T02:20:38.729Z,96023.97
2023-02-06T02:23:29.585Z,96028.06
2023-02-06T02:26:08.116Z,96029.84
2023-02-06T02:29:11.928Z,96028.66
2023-02-06T02:31:44.075Z,96032.66
2023-02-06T02:34:47.517Z,96034.22
2023-02-06T02:37:27.730Z,96040.38
2023-02-06T02:40:27.174Z,96037.81
2023-02-06T02:43:04.783Z,96033.44
2023-02-06T02:45:37.628Z,96040.97
2023-02-06T02:48:27.565Z,96029.09
2023-02-06T02:50:55.429Z,96024.97
2023-02-06T02:53:22.369Z,96021.75
2023-02-06T02:55:48.943Z,96039.75
2023-02-06T02:58:21.453Z,96037.19
2023-02-06T03:00:56.335Z,96037.38
2023-02-06T03:03:26.020Z,96038.31
2023-02-06T03:06:26.637Z,96040.91
2023-02-06T03:08:58.310Z,96040.91
2023-02-06T03:11:25.289Z,96036.13
2023-02-06T03:14:05.943Z,96036.94
2023-02-06T03:16:45.765Z,96036.13
2023-02-06T03:19:16.813Z,96039.66
2023-02-06T03:21:45.685Z,96032.53
2023-02-06T03:24:20.500Z,96038.03
2023-02-06T03:26:50.955Z,96029.25
2023-02-06T03:29:18.810Z,96027.25
2023-02-06T03:31:52.328Z,96025.06
2023-02-06T03:34:43.483Z,96039.88
2023-02-06T03:37:10.719Z,96047.94
2023-02-06T03:39:37.645Z,96046.94
2023-02-06T03:42:05.979Z,96037.31
2023-02-06T03:44:36.313Z,96042.22
2023-02-06T03:47:04.733Z,96044.78
2023-02-06T03:49:33.276Z,96046.19
2023-02-06T03:52:05.736Z,96046.63
2023-02-06T03:54:36.122Z,96043.88
2023-02-06T03:57:10.303Z,96040.31
2023-02-06T03:59:36.710Z,96041.13
2023-02-06T04:02:04.819Z,96050.22
2023-02-06T04:04:40.108Z,96045.88
2023-02-06T04:07:19.711Z,96033.22
2023-02-06T04:09:46.192Z,96029.09
2023-02-06T04:12:12.657Z,96030.66
2023-02-06T04:14:39.443Z,96026.53
2023-02-06T04:17:06.345Z,96014.22
2023-02-06T04:19:33.481Z,96016.56
2023-02-06T04:21:59.932Z,96008.22
2023-02-06T04:24:26.311Z,96018.31
2023-02-06T04:26:52.970Z,96003.03
2023-02-06T04:29:19.590Z,96011.72
2023-02-06T04:31:46.947Z,96024.31
2023-02-06T04:34:13.346Z,96015.38
2023-02-06T04:36:39.765Z,96022.31
2023-02-06T04:39:07.124Z,96027.81
2023-02-06T04:41:34.239Z,96016.91
2023-02-06T04:44:00.941Z,96020.72
2023-02-06T04:46:27.389Z,96019.75
2023-02-06T04:48:53.774Z,96021.69
2023-02-06T04:51:20.173Z,96030.97
2023-02-06T04:53:46.557Z,96031.13
2023-02-06T04:56:13.036Z,96027.81
2023-02-06T04:58:39.684Z,96027.59
2023-02-06T05:01:06.774Z,96025.41
2023-02-06T05:03:33.495Z,96027.44
2023-02-06T05:06:01.277Z,96020.72
2023-02-06T05:08:27.762Z,96020.09
2023-02-06T05:10:55.145Z,96023.28
2023-02-06T05:13:21.812Z,96018.31
2023-02-06T05:15:48.263Z,96016.75
2023-02-06T05:18:15.672Z,96018.72
2023-02-06T05:20:42.812Z,96027.59
2023-02-06T05:23:09.600Z,96024.44
2023-02-06T05:25:37.116Z,96023.28
2023-02-06T05:28:06.492Z,96018.88
2023-02-06T05:30:34.359Z,96017.47
2023-02-06T05:33:00.855Z,96020.25
2023-02-06T05:35:27.936Z,96032.06
2023-02-06T05:37:54.314Z,96022.81
2023-02-06T05:40:20.874Z,96031.69
2023-02-06T05:42:47.312Z,96028.97
2023-02-06T05:45:13.742Z,96028.97
2023-02-06T05:47:40.185Z,96025.78
2023-02-06T05:50:06.995Z,96029.06
2023-02-06T05:52:33.477Z,96029.63
2023-02-06T05:54:59.878Z,96033.56
2023-02-06T05:57:26.261Z,96035.91
2023-02-06T05:59:52.713Z,96020.34
2023-02-06T06:02:19.114Z,96014.69
2023-02-06T06:04:45.719Z,96013.06
2023-02-06T06:07:12.180Z,96010.34
2023-02-06T06:09:38.599Z,96018.22
2023-02-06T06:12:05.165Z,96022.13
2023-02-06T06:14:31.611Z,96015.59
2023-02-06T06:16:58.004Z,96026.59
2023-02-06T06:19:24.444Z,96035.06
2023-02-06T06:21:50.988Z,96042.56
2023-02-06T06:24:17.420Z,96049.31
2023-02-06T06:26:43.847Z,96051.06
2023-02-06T06:29:10.277Z,96051.44
2023-02-06T06:31:36.687Z,96046.66
2023-02-06T06:34:03.362Z,96045.88
2023-02-06T06:36:29.780Z,96055.53
2023-02-06T06:38:56.235Z,96056.84
2023-02-06T06:41:22.721Z,96047.22
2023-02-06T06:43:51.292Z,96048.78
2023-02-06T06:46:18.873Z,96050.75
2023-02-06T06:48:45.278Z,96040.13
2023-02-06T06:51:11.680Z,96046.09
2023-02-06T06:53:40.034Z,96036.47
2023-02-06T06:56:08.540Z,96039.78
2023-02-06T06:58:34.928Z,96048.06
2023-02-06T07:01:01.513Z,96042.34
2023-02-06T07:03:28.001Z,96048.50
2023-02-06T07:05:54.440Z,96060.78
2023-02-06T07:08:20.900Z,96056.81
2023-02-06T07:10:48.018Z,96057.00
2023-02-06T07:13:15.580Z,96062.28
2023-02-06T07:15:42.821Z,96068.78
2023-02-06T07:18:11.629Z,96067.38
2023-02-06T07:20:38.398Z,96051.63
2023-02-06T07:23:06.062Z,96052.66
2023-02-06T07:25:33.281Z,96045.63
2023-02-06T07:27:59.782Z,96071.38
2023-02-06T07:30:26.247Z,96057.97
2023-02-06T07:32:52.732Z,96061.75
2023-02-06T07:35:19.311Z,96057.97
2023-02-06T07:37:45.700Z,96063.44
2023-02-06T07:40:12.635Z,96052.22
2023-02-06T07:42:40.163Z,96059.13
2023-02-06T07:45:19.672Z,96057.16
2023-02-06T07:47:46.057Z,96063.94
2023-02-06T07:50:12.522Z,96059.25
2023-02-06T07:52:38.931Z,96049.41
2023-02-06T07:55:05.716Z,96060.88
2023-02-06T07:57:32.119Z,96052.41
2023-02-06T07:59:58.509Z,96048.06
2023-02-06T08:02:24.962Z,96043.72
2023-02-06T08:04:51.389Z,96041.03
2023-02-06T08:07:18.090Z,96033.03
2023-02-06T08:09:44.624Z,96039.00
2023-02-06T08:12:12.063Z,96054.03
2023-02-06T08:14:38.590Z,96058.81
2023-02-06T08:17:05.739Z,96051.47
2023-02-06T08:19:32.134Z,96056.47
2023-02-06T08:21:58.598Z,96042.66
2023-02-06T08:24:25.041Z,96043.50
2023-02-06T08:26:51.465Z,96044.34
2023-02-06T08:29:17.849Z,96047.75
2023-02-06T08:31:44.344Z,96042.06
2023-02-06T08:34:14.943Z,96053.34
2023-02-06T08:36:43.619Z,96051.16
2023-02-06T08:39:13.761Z,96060.94
2023-02-06T08:41:42.634Z,96059.38
2023-02-06T08:44:12.972Z,96049.84
2023-02-06T08:46:40.324Z,96047.50
2023-02-06T08:49:12.291Z,96044.81
2023-02-06T08:51:38.750Z,96041.50
2023-02-06T08:54:08.613Z,96042.09
2023-02-06T08:56:36.726Z,96041.72
2023-02-06T08:59:04.288Z,96040.50
2023-02-06T09:01:33.668Z,96034.31
2023-02-06T09:04:02.680Z,96043.13
2023-02-06T09:06:29.708Z,96045.47
2023-02-06T09:08:57.032Z,96034.38
2023-02-06T09:11:25.622Z,96035.09
2023-02-06T09:13:58.680Z,96038.16
2023-02-06T09:16:27.211Z,96037.94
2023-02-06T09:18:54.756Z,96034.38
2023-02-06T09:21:23.958Z,96037.44
2023-02-06T09:23:56.031Z,96037.66
2023-02-06T09:26:24.934Z,96043.47
2023-02-06T09:28:52.865Z,96047.47
2023-02-06T09:31:20.121Z,96048.25
2023-02-06T09:33:46.543Z,96028.09
2023-02-06T09:36:19.934Z,96030.28
2023-02-06T09:38:49.199Z,96033.28
2023-02-06T09:41:43.807Z,96018.66
2023-02-06T09:44:10.172Z,96019.41
2023-02-06T09:46:43.205Z,96002.56
2023-02-06T09:49:21.575Z,96027.63
2023-02-06T09:52:29.001Z,96023.44
2023-02-06T09:55:20.416Z,96015.06
2023-02-06T09:58:01.809Z,96015.66
2023-02-06T10:01:04.167Z,96024.97
2023-02-06T10:03:52.794Z,96013.72
2023-02-06T10:06:36.735Z,96005.84
2023-02-06T10:09:11.421Z,96003.50
2023-02-06T10:11:56.207Z,95992.06
2023-02-06T10:14:31.680Z,95989.94
2023-02-06T10:17:02.925Z,95991.91
2023-02-06T10:19:39.967Z,95998.44
2023-02-06T10:22:21.038Z,95993.38
2023-02-06T10:25:11.497Z,95996.53
2023-02-06T10:27:41.728Z,95999.69
2023-02-06T10:30:17.783Z,95997.66
2023-02-06T10:32:54.296Z,95991.84
2023-02-06T10:35:30.696Z,95990.91
2023-02-06T10:38:35.077Z,95986.34
2023-02-06T10:41:31.386Z,95975.03
2023-02-06T10:44:01.736Z,95981.13
2023-02-06T10:46:48.162Z,95971.81
2023-02-06T10:49:24.829Z,95961.94
2023-02-06T10:51:54.872Z,95956.00
2023-02-06T10:54:27.430Z,95954.66
2023-02-06T10:56:56.896Z,95954.28
2023-02-06T10:59:37.612Z,95955.31
2023-02-06T11:02:20.353Z,95954.81
2023-02-06T11:05:04.193Z,95963.28
2023-02-06T11:07:37.271Z,95960.31
2023-02-06T11:10:05.209Z,95956.38
2023-02-06T11:12:37.139Z,95943.31
2023-02-06T11:15:36.117Z,95948.88
2023-02-06T11:18:06.637Z,95938.97
2023-02-06T11:20:36.949Z,95929.50
2023-02-06T11:23:21.910Z,95931.78
2023-02-06T11:25:58.458Z,95932.75
2023-02-06T11:28:26.022Z,95928.63
2023-02-06T11:31:04.379Z,95931.06
2023-02-06T11:33:49.064Z,95921.22
2023-02-06T11:36:32.621Z,95918.03
2023-02-06T11:39:20.205Z,95911.56
2023-02-06T11:41:58.690Z,95923.22
2023-02-06T11:44:27.063Z,95917.13
2023-02-06T11:46:53.613Z,95936.28
2023-02-06T11:49:28.956Z,95930.03
2023-02-06T11:51:59.965Z,95935.38
2023-02-06T11:54:29.623Z,95921.78
2023-02-06T11:57:16.249Z,95923.41
2023-02-06T11:59:54.924Z,95922.81
2023-02-06T12:02:34.907Z,95936.03
2023-02-06T12:05:12.765Z,95914.69
2023-02-06T12:07:49.813Z,95903.63
2023-02-06T12:10:19.151Z,95908.81
2023-02-06T12:12:51.602Z,95902.72
2023-02-06T12:15:46.985Z,95904.09
2023-02-06T12:18:28.967Z,95895.59
2023-02-06T12:21:16.433Z,95891.06
2023-02-06T12:23:49.725Z,95885.53
2023-02-06T12:26:19.878Z,95880.00
2023-02-06T12:28:59.459Z,95883.63
2023-02-06T12:31:41.627Z,95884.84
2023-02-06T12:34:16.953Z,95889.97
2023-02-06T12:37:00.218Z,95890.94
2023-02-06T12:39:31.934Z,95897.47
2023-02-06T12:42:20.393Z,95892.50
2023-02-06T12:44:53.000Z,95881.22
2023-02-06T12:47:25.296Z,95874.47
2023-02-06T12:49:58.463Z,95881.75
2023-02-06T12:52:31.102Z,95873.66
2023-02-06T12:55:14.777Z,95870.47
2023-02-06T12:57:42.073Z,95857.38
2023-02-06T13:00:34.604Z,95847.44
2023-02-06T13:03:20.910Z,95844.25
2023-02-06T13:05:50.735Z,95830.00
2023-02-06T13:08:27.369Z,95844.28
2023-02-06T13:11:21.409Z,95841.94
2023-02-06T13:13:52.636Z,95837.81
2023-02-06T13:16:19.203Z,95852.19
2023-02-06T13:18:50.423Z,95842.34
2023-02-06T13:21:29.687Z,95839.19
2023-02-06T13:24:02.156Z,95849.88
2023-02-06T13:26:43.877Z,95856.19
2023-02-06T13:29:26.585Z,95850.63
2023-02-06T13:32:18.346Z,95849.41
2023-02-06T13:34:44.789Z,95851.00
2023-02-06T13:37:34.442Z,95840.75
2023-02-06T13:40:22.837Z,95850.59
2023-02-06T13:43:07.691Z,95853.34
2023-02-06T13:45:46.682Z,95855.66
2023-02-06T13:48:50.629Z,95841.50
2023-02-06T13:51:30.672Z,95840.53
2023-02-06T13:54:28.253Z,95843.16
2023-02-06T13:57:23.377Z,95839.25
2023-02-06T13:59:54.763Z,95845.59
2023-02-06T14:02:21.069Z,95842.88
2023-02-06T14:04:48.333Z,95849.00
2023-02-06T14:07:34.969Z,95855.38
2023-02-06T14:10:16.656Z,95845.28
2023-02-06T14:12:57.958Z,95846.03
2023-02-06T14:15:49.119Z,95838.31
2023-02-06T14:18:29.165Z,95840.91
2023-02-06T14:21:13.795Z,95840.91
2023-02-06T14:23:58.480Z,95839.16
2023-02-06T14:26:42.345Z,95836.59
2023-02-06T14:29:30.348Z,95844.31
2023-02-06T14:32:31.100Z,95843.88
2023-02-06T14:35:17.385Z,95845.84
2023-02-06T14:37:47.220Z,95844.09
2023-02-06T14:40:21.252Z,95844.09
2023-02-06T14:42:49.391Z,95844.88
2023-02-06T14:45:42.028Z,95847.63
2023-02-06T14:48:21.294Z,95834.78
2023-02-06T14:50:52.395Z,95839.94
2023-02-06T14:53:24.661Z,95835.56
2023-02-06T14:55:51.150Z,95843.84
2023-02-06T14:58:29.380Z,95849.78
2023-02-06T15:01:10.567Z,95853.91
2023-02-06T15:03:37.046Z,95844.81
2023-02-06T15:06:05.332Z,95846.19
2023-02-06T15:08:33.527Z,95850.31
2023-02-06T15:11:04.884Z,95848.56
2023-02-06T15:13:35.832Z,95840.84
2023-02-06T15:16:05.219Z,95836.63
2023-02-06T15:18:35.468Z,95837.25
2023-02-06T15:21:12.382Z,95843.59
2023-02-06T15:24:07.599Z,95840.41
2023-02-06T15:26:43.093Z,95832.91
2023-02-06T15:29:19.805Z,95830.75
2023-02-06T15:31:52.700Z,95841.19
2023-02-06T15:34:22.739Z,95843.75
2023-02-06T15:36:50.304Z,95843.75
2023-02-06T15:39:17.931Z,95832.88
2023-02-06T15:41:47.204Z,95821.41
2023-02-06T15:44:19.433Z,95829.09
2023-02-06T15:46:48.433Z,95826.47
2023-02-06T15:49:31.797Z,95826.25
2023-02-06T15:51:58.489Z,95828.59
2023-02-06T15:54:27.440Z,95827.97
2023-02-06T15:57:01.957Z,95832.34
2023-02-06T15:59:28.657Z,95830.75
2023-02-06T16:01:57.644Z,95826.41
2023-02-06T16:04:29.981Z,95819.69
2023-02-06T16:07:12.058Z,95820.47
2023-02-06T16:09:42.789Z,95820.25
2023-02-06T16:12:10.008Z,95827.38
2023-02-06T16:14:41.164Z,95827.38
2023-02-06T16:17:13.526Z,95821.28
2023-02-06T16:19:44.873Z,95830.53
2023-02-06T16:22:16.624Z,95831.72
2023-02-06T16:24:43.106Z,95821.59
2023-02-06T16:27:27.592Z,95820.78
2023-02-06T16:29:57.282Z,95825.84
2023-02-06T16:32:31.579Z,95820.13
2023-02-06T16:34:58.125Z,95811.25
2023-02-06T16:37:28.399Z,95814.78
2023-02-06T16:39:55.064Z,95813.19
2023-02-06T16:42:25.817Z,95819.09
2023-02-06T16:44:58.340Z,95814.56
2023-02-06T16:47:24.782Z,95820.66
2023-02-06T16:49:51.993Z,95827.38
2023-02-06T16:52:28.960Z,95832.50
2023-02-06T16:54:58.827Z,95836.03
2023-02-06T16:57:43.229Z,95830.28
2023-02-06T17:00:22.474Z,95832.84
2023-02-06T17:02:51.890Z,95829.69
2023-02-06T17:05:20.599Z,95827.91
2023-02-06T17:07:49.058Z,95833.66
2023-02-06T17:10:16.430Z,95837.63
2023-02-06T17:12:45.087Z,95830.09
2023-02-06T17:15:17.588Z,95833.69
2023-02-06T17:17:44.862Z,95830.75
2023-02-06T17:20:29.524Z,95833.75
2023-02-06T17:22:56.117Z,95823.88
2023-02-06T17:25:22.565Z,95825.84
2023-02-06T17:27:49.012Z,95819.75
2023-02-06T17:30:21.213Z,95833.38
2023-02-06T17:32:48.195Z,95821.09
2023-02-06T17:35:15.381Z,95826.84
2023-02-06T17:37:42.182Z,95829.03
2023-02-06T17:40:11.627Z,95833.00
2023-02-06T17:42:38.243Z,95833.38
2023-02-06T17:45:04.896Z,95838.50
2023-02-06T17:47:31.339Z,95829.03
2023-02-06T17:49:57.878Z,95831.78
2023-02-06T17:52:24.298Z,95830.97
2023-02-06T17:54:51.077Z,95835.31
2023-02-06T17:57:17.494Z,95831.97
2023-02-06T17:59:43.920Z,95831.97
2023-02-06T18:02:13.595Z,95834.72
2023-02-06T18:04:40.231Z,95838.69
2023-02-06T18:07:07.217Z,95830.63
2023-02-06T18:09:33.600Z,95835.16
2023-02-06T18:12:00.051Z,95836.47
2023-02-06T18:14:26.546Z,95828.78
2023-02-06T18:16:53.034Z,95821.72
2023-02-06T18:19:23.843Z,95833.38
2023-02-06T18:21:50.260Z,95828.41
2023-02-06T18:24:16.816Z,95826.84
2023-02-06T18:26:43.316Z,95814.78
2023-02-06T18:29:09.704Z,95812.38
2023-02-06T18:31:36.560Z,95815.75
2023-02-06T18:34:07.715Z,95817.72
2023-02-06T18:36:36.179Z,95824.59
2023-02-06T18:39:03.161Z,95834.69
2023-02-06T18:41:48.145Z,95832.88
2023-02-06T18:44:14.642Z,95839.63
2023-02-06T18:46:41.118Z,95843.94
2023-02-06T18:49:07.839Z,95831.31
2023-02-06T18:51:34.428Z,95831.13
2023-02-06T18:54:01.129Z,95827.16
2023-02-06T18:56:27.960Z,95826.56
2023-02-06T18:58:55.377Z,95825.78
2023-02-06T19:01:23.397Z,95826.38
2023-02-06T19:03:50.873Z,95815.50
2023-02-06T19:06:25.433Z,95815.88
2023-02-06T19:08:51.798Z,95806.44
2023-02-06T19:11:18.337Z,95802.91
2023-02-06T19:13:44.774Z,95803.66
2023-02-06T19:16:13.885Z,95811.34
2023-02-06T19:18:43.007Z,95802.69
2023-02-06T19:21:12.335Z,95798.16
2023-02-06T19:23:39.741Z,95802.53
2023-02-06T19:26:07.859Z,95805.25
2023-02-06T19:28:36.598Z,95798.53
2023-02-06T19:31:04.023Z,95808.03
2023-02-06T19:33:32.132Z,95800.50
2023-02-06T19:35:59.190Z,95799.72
2023-02-06T19:38:25.748Z,95802.47
2023-02-06T19:40:53.619Z,95809.38
2023-02-06T19:43:20.444Z,95800.72
2023-02-06T19:45:46.908Z,95810.59
2023-02-06T19:48:13.854Z,95798.16
2023-02-06T19:50:43.086Z,95806.22
2023-02-06T19:53:09.878Z,95795.38
2023-02-06T19:55:36.735Z,95798.31
2023-02-06T19:58:03.179Z,95801.06
2023-02-06T20:00:29.573Z,95810.34
2023-02-06T20:02:55.965Z,95812.28
2023-02-06T20:05:26.327Z,95810.91
2023-02-06T20:07:53.844Z,95812.88
2023-02-06T20:10:23.681Z,95814.63
2023-02-06T20:12:50.855Z,95815.78
2023-02-06T20:15:17.301Z,95811.25
2023-02-06T20:17:43.773Z,95822.88
2023-02-06T20:20:11.485Z,95824.81
2023-02-06T20:22:39.842Z,95822.25
2023-02-06T20:25:06.589Z,95812.41
2023-02-06T20:27:33.025Z,95824.41
2023-02-06T20:29:59.442Z,95835.81
2023-02-06T20:32:25.998Z,95833.19
2023-02-06T20:34:52.381Z,95828.34
2023-02-06T20:37:18.878Z,95830.47
2023-02-06T20:39:45.483Z,95831.19
2023-02-06T20:42:11.872Z,95839.78
2023-02-06T20:44:38.389Z,95841.84
2023-02-06T20:47:04.829Z,95843.72
2023-02-06T20:49:31.475Z,95849.75
2023-02-06T20:51:58.066Z,95838.63
2023-02-06T20:54:25.038Z,95847.66
2023-02-06T20:56:51.596Z,95846.41
2023-02-06T20:59:19.883Z,95851.91
2023-02-06T21:01:46.441Z,95858.16
2023-02-06T21:04:14.493Z,95850.25
2023-02-06T21:06:41.482Z,95854.56
2023-02-06T21:09:09.055Z,95850.00
2023-02-06T21:11:41.338Z,95857.06
2023-02-06T21:14:08.375Z,95849.53
2023-02-06T21:16:37.515Z,95843.03
2023-02-06T21:19:06.113Z,95835.69
2023-02-06T21:21:32.917Z,95839.25
2023-02-06T21:23:59.432Z,95840.38
2023-02-06T21:26:27.205Z,95845.66
2023-02-06T21:28:54.184Z,95855.09
2023-02-06T21:31:36.861Z,95861.81
2023-02-06T21:34:15.800Z,95855.72
2023-02-06T21:36:42.858Z,95861.81
2023-02-06T21:39:11.233Z,95867.72
2023-02-06T21:41:37.714Z,95868.69
2023-02-06T21:44:04.706Z,95856.88
2023-02-06T21:46:31.406Z,95856.00
2023-02-06T21:48:57.837Z,95852.28
2023-02-06T21:51:24.373Z,95854.66
2023-02-06T21:53:50.770Z,95855.34
2023-02-06T21:56:23.598Z,95863.09
2023-02-06T21:58:50.830Z,95859.22
2023-02-06T22:01:20.694Z,95862.31
2023-02-06T22:03:48.022Z,95853.22
2023-02-06T22:06:15.307Z,95848.28
2023-02-06T22:08:44.285Z,95843.16
2023-02-06T22:11:16.402Z,95837.63
2023-02-06T22:13:44.156Z,95834.00
2023-02-06T22:16:13.962Z,95845.78
2023-02-06T22:18:40.995Z,95839.88
2023-02-06T22:21:13.438Z,95825.88
2023-02-06T22:23:40.894Z,95823.84
2023-02-06T22:26:09.131Z,95822.00
2023-02-06T22:28:35.786Z,95822.94
2023-02-06T22:31:14.164Z,95831.63
2023-02-06T22:33:40.791Z,95840.78
2023-02-06T22:36:12.937Z,95844.81
2023-02-06T22:38:40.233Z,95848.50
2023-02-06T22:41:11.025Z,95855.00
2023-02-06T22:43:38.897Z,95851.97
2023-02-06T22:46:06.634Z,95850.22
2023-02-06T22:48:33.630Z,95853.09
2023-02-06T22:51:08.913Z,95853.72
2023-02-06T22:53:37.579Z,95851.78
2023-02-06T22:56:31.370Z,95840.28
2023-02-06T22:59:10.238Z,95855.59
2023-02-06T23:01:48.394Z,95861.94
2023-02-06T23:04:23.365Z,95852.97
2023-02-06T23:06:51.034Z,95863.00
2023-02-06T23:09:26.477Z,95865.22
2023-02-06T23:11:53.840Z,95862.50
2023-02-06T23:14:20.503Z,95876.84
2023-02-06T23:16:47.860Z,95879.41
2023-02-06T23:19:15.431Z,95875.91
2023-02-06T23:21:43.766Z,95870.00
2023-02-06T23:24:11.424Z,95875.28
2023-02-06T23:26:40.127Z,95881.34
2023-02-06T23:29:08.014Z,95887.69
2023-02-06T23:31:35.097Z,95896.00
2023-02-06T23:34:01.778Z,95897.13
2023-02-06T23:36:29.284Z,95903.38
2023-02-06T23:38:56.254Z,95904.78
2023-02-06T23:41:27.643Z,95907.44
2023-02-06T23:43:58.346Z,95909.84
2023-02-06T23:46:26.034Z,95914.47
2023-02-06T23:48:53.478Z,95916.56
2023-02-06T23:51:20.784Z,95915.16
2023-02-06T23:53:47.890Z,95922.81
2023-02-06T23:56:18.447Z,95918.69
2023-02-06T23:58:45.064Z,95909.50
